Latest Weather Observations for Spring Bay

IDT60801

Issued at 10:01 pm EST Monday 27 April 2015 (issued every 30 minutes, with the page automatically refreshed every 10 minutes)

About weather observations | Map of weather stations | Latest weather observations for TAS | Other Formats
Station Details ID: 092133 Name: SPRING BAY NTC AWS Lat: -42.55 Lon: 147.93 Height: 0.0 m
Data from the previous 72 hours. | See also: Recent months for locations in Tasmania
Date/Time
EST
Temp
°C
App
Temp
°C
Dew
Point
Rel
Hum
%
Delta-T
°C
Wind Press
QNH
hPa
Press
MSL
hPa
Rain
since 9 am
mm
Dir
 
Spd
km/h
Gust
km/h
Spd
kts
Gust
kts
27/10:00pm 11.5 - - - - - - - - - 1022.9 1022.9 -
27/09:30pm 11.8 - - - - - - - - - 1022.8 1022.8 -
27/09:00pm 11.9 - - - - - - - - - 1022.6 1022.6 -
27/08:30pm 11.5 - - - - - - - - - 1022.4 1022.4 -
27/08:00pm 11.4 - - - - - - - - - 1022.1 1022.1 -
27/07:30pm 11.6 - - - - - - - - - 1021.8 1021.8 -
27/07:00pm 11.8 - - - - - - - - - 1021.5 1021.5 -
27/06:30pm 12.6 - - - - - - - - - 1021.2 1021.2 -
27/06:00pm 12.7 - - - - - - - - - 1020.6 1020.6 -
27/05:30pm 13.1 - - - - - - - - - 1020.2 1020.2 -
27/05:00pm 13.2 - - - - - - - - - 1019.7 1019.7 -
27/04:30pm 13.6 - - - - - - - - - 1019.3 1019.3 -
27/04:00pm 14.0 - - - - - - - - - 1019.1 1019.1 -
27/03:30pm 14.5 - - - - - - - - - 1018.7 1018.7 -
27/03:00pm 14.4 - - - - - - - - - 1018.4 1018.4 -
27/02:30pm 14.7 - - - - - - - - - 1017.9 1017.9 -
27/02:00pm 14.8 - - - - - - - - - 1017.7 1017.7 -
27/01:30pm 14.3 - - - - - - - - - 1017.6 1017.6 -
27/01:00pm 13.9 - - - - - - - - - 1017.8 1017.8 -
27/12:30pm 13.8 - - - - - - - - - 1018.0 1018.0 -
27/12:00pm 13.8 - - - - - - - - - 1018.1 1018.1 -
27/11:30am 13.6 - - - - - - - - - 1018.3 1018.3 -
27/11:00am 13.1 - - - - - - - - - 1018.4 1018.4 -
27/10:30am 12.9 - - - - - - - - - 1018.4 1018.4 -
27/10:00am 12.2 - - - - - - - - - 1018.0 1018.0 -
27/09:30am 11.6 - - - - - - - - - 1017.7 1017.7 -
27/09:00am 11.7 - - - - - - - - - 1017.7 1017.7 -
27/08:30am 10.6 - - - - - - - - - 1017.4 1017.4 -
27/08:00am 10.3 - - - - - - - - - 1017.1 1017.1 -
27/07:30am 10.1 - - - - - - - - - 1016.7 1016.7 -
27/07:00am 10.0 - - - - - - - - - 1016.3 1016.3 -
27/06:30am 10.0 - - - - - - - - - 1016.1 1016.1 -
27/06:00am 10.0 - - - - - - - - - 1015.7 1015.7 -
27/05:30am 9.9 - - - - - - - - - 1015.7 1015.7 -
27/05:00am 10.2 - - - - - - - - - 1015.4 1015.4 -
27/04:30am 10.1 - - - - - - - - - 1015.2 1015.2 -
27/04:00am 10.3 - - - - - - - - - 1015.0 1015.0 -
27/03:30am 10.2 - - - - - - - - - 1014.8 1014.8 -
27/03:00am 10.2 - - - - - - - - - 1014.8 1014.8 -
27/02:30am 10.4 - - - - - - - - - 1015.0 1015.0 -
27/02:00am 10.3 - - - - - - - - - 1014.9 1014.9 -
27/01:30am 10.0 - - - - - - - - - 1014.7 1014.7 -
27/01:00am 10.1 - - - - - - - - - 1014.7 1014.7 -
27/12:30am 10.3 - - - - - - - - - 1014.6 1014.6 -
27/12:00am 10.7 - - - - - - - - - 1014.5 1014.5 -
 
Date/Time
EST
Temp
°C
App
Temp
°C
Dew
Point
Rel
Hum
%
Delta-T
°C
Wind Press
QNH
hPa
Press
MSL
hPa
Rain
since 9 am
mm
Dir
 
Spd
km/h
Gust
km/h
Spd
kts
Gust
kts
26/11:30pm 10.7 - - - - - - - - - 1014.5 1014.5 -
26/11:00pm 10.9 - - - - - - - - - 1014.4 1014.4 -
26/10:30pm 10.9 - - - - - - - - - 1014.4 1014.4 -
26/10:00pm 11.1 - - - - - - - - - 1014.3 1014.3 -
26/09:30pm 11.3 - - - - - - - - - 1014.2 1014.2 -
26/09:00pm 11.4 - - - - - - - - - 1014.1 1014.1 -
26/08:30pm 11.7 - - - - - - - - - 1013.7 1013.7 -
26/08:00pm 11.8 - - - - - - - - - 1013.5 1013.5 -
26/07:30pm 12.1 - - - - - - - - - 1013.3 1013.3 -
26/07:00pm 12.0 - - - - - - - - - 1013.0 1013.0 -
26/06:30pm 13.4 - - - - - - - - - 1012.6 1012.6 -
26/06:00pm 13.3 - - - - - - - - - 1012.2 1012.2 -
26/05:30pm 13.4 - - - - - - - - - 1011.6 1011.6 -
26/05:00pm 13.6 - - - - - - - - - 1011.5 1011.5 -
26/04:30pm 13.8 - - - - - - - - - 1011.2 1011.2 -
26/04:00pm 13.8 - - - - - - - - - 1011.1 1011.1 -
26/03:30pm 14.0 - - - - - - - - - 1010.7 1010.7 -
26/03:00pm 14.4 - - - - - - - - - 1010.7 1010.7 -
26/02:30pm 14.4 - - - - - - - - - 1010.7 1010.7 -
26/02:00pm 13.6 - - - - - - - - - 1010.9 1010.9 -
26/01:30pm 13.6 - - - - - - - - - 1011.0 1011.0 -
26/01:00pm 13.4 - - - - - - - - - 1011.3 1011.3 -
26/12:30pm 13.0 - - - - - - - - - 1011.5 1011.5 -
26/12:00pm 12.6 - - - - - - - - - 1011.9 1011.9 -
26/11:30am 12.5 - - - - - - - - - 1012.4 1012.4 -
26/11:00am 11.9 - - - - - - - - - 1012.7 1012.7 -
26/10:30am 11.2 - - - - - - - - - 1013.0 1013.0 -
26/10:00am 11.1 - - - - - - - - - 1013.2 1013.2 -
26/09:30am 10.5 - - - - - - - - - 1013.3 1013.3 -
26/09:00am 10.8 - - - - - - - - - 1013.5 1013.5 -
26/08:30am 10.8 - - - - - - - - - 1013.4 1013.4 -
26/08:00am 10.1 - - - - - - - - - 1013.3 1013.3 -
26/07:30am 9.6 - - - - - - - - - 1013.1 1013.1 -
26/07:00am 9.6 - - - - - - - - - 1012.7 1012.7 -
26/06:30am 9.7 - - - - - - - - - 1012.5 1012.5 -
26/06:00am 10.1 - - - - - - - - - 1012.3 1012.3 -
26/05:30am 10.2 - - - - - - - - - 1012.3 1012.3 -
26/05:00am 10.5 - - - - - - - - - 1012.4 1012.4 -
26/04:30am 10.3 - - - - - - - - - 1012.4 1012.4 -
26/04:00am 10.5 - - - - - - - - - 1012.3 1012.3 -
26/03:30am 10.3 - - - - - - - - - 1012.3 1012.3 -
26/03:00am 10.4 - - - - - - - - - 1012.4 1012.4 -
26/02:30am 10.5 - - - - - - - - - 1012.3 1012.3 -
26/02:00am 11.1 - - - - - - - - - 1012.6 1012.6 -
26/01:30am 10.5 - - - - - - - - - 1012.8 1012.8 -
26/01:00am 10.7 - - - - - - - - - 1012.5 1012.5 -
26/12:30am 10.7 - - - - - - - - - 1012.7 1012.7 -
26/12:00am 10.7 - - - - - - - - - 1012.6 1012.6 -
 
Date/Time
EST
Temp
°C
App
Temp
°C
Dew
Point
Rel
Hum
%
Delta-T
°C
Wind Press
QNH
hPa
Press
MSL
hPa
Rain
since 9 am
mm
Dir
 
Spd
km/h
Gust
km/h
Spd
kts
Gust
kts
25/11:30pm 10.6 - - - - - - - - - 1012.5 1012.5 -
25/11:00pm 10.7 - - - - - - - - - 1012.7 1012.7 -
25/10:30pm 10.9 - - - - - - - - - 1012.8 1012.8 -
25/10:00pm 11.0 - - - - - - - - - 1013.0 1013.0 -
25/09:30pm 11.2 - - - - - - - - - 1013.0 1013.0 -
25/09:00pm 11.3 - - - - - - - - - 1012.9 1012.9 -
25/08:30pm 11.7 - - - - - - - - - 1012.9 1012.9 -
25/08:00pm 11.8 - - - - - - - - - 1012.8 1012.8 -
25/07:30pm 12.0 - - - - - - - - - 1012.5 1012.5 -
25/07:00pm 12.4 - - - - - - - - - 1012.3 1012.3 -
25/06:30pm 12.3 - - - - - - - - - 1012.1 1012.1 -
25/06:00pm 12.5 - - - - - - - - - 1011.8 1011.8 -
25/05:30pm 12.7 - - - - - - - - - 1011.4 1011.4 -
25/05:00pm 12.8 - - - - - - - - - 1011.1 1011.1 -
25/04:30pm 12.9 - - - - - - - - - 1010.8 1010.8 -
25/04:00pm 13.1 - - - - - - - - - 1010.6 1010.6 -
25/03:30pm 13.3 - - - - - - - - - 1010.6 1010.6 -
25/03:00pm 13.1 - - - - - - - - - 1010.4 1010.4 -
25/02:30pm 13.5 - - - - - - - - - 1010.1 1010.1 -
25/02:00pm 13.4 - - - - - - - - - 1009.9 1009.9 -
25/01:30pm 13.5 - - - - - - - - - 1009.7 1009.7 -
25/01:00pm 13.4 - - - - - - - - - 1009.6 1009.6 -
25/12:30pm 13.1 - - - - - - - - - 1009.7 1009.7 -
25/12:00pm 13.0 - - - - - - - - - 1009.8 1009.8 -
25/11:30am 13.2 - - - - - - - - - 1009.8 1009.8 -
25/11:00am 12.8 - - - - - - - - - 1009.9 1009.9 -
25/10:30am 12.6 - - - - - - - - - 1009.9 1009.9 -
25/10:00am 12.3 - - - - - - - - - 1009.7 1009.7 -
25/09:30am 12.4 - - - - - - - - - 1009.5 1009.5 -
25/09:00am 12.2 - - - - - - - - - 1009.3 1009.3 -
25/08:30am 12.8 - - - - - - - - - 1008.9 1008.9 -

Other Formats:

Comma delimited format used in spreadsheet applications
http://www.bom.gov.au/fwo/IDT60801/IDT60801.95987.axf

JavaScript Object Notation format (JSON) in row-major order
http://www.bom.gov.au/fwo/IDT60801/IDT60801.95987.json